Calvary, Georgia
Current Conditions -  °F | °C
As of 10:35 AM on Saturday 22 Nov 2014 (Local Time) from K2J9 Reporting Station
Overcast Overcast  
Wind Chill: 17°   Ceiling: 3900
Heat Index: 17°   Visibility: 10mi
Dew Point: 10°   Wind: 5mph
Humidity: 63%   Direction: 90°E
Pressure: 30.34"   Gusts: NA
Location:  30.73°N, 84.35°W
Report Text: K2J9 221535Z AUTO 09004KT 10SM BKN039 OVC044 17/10 A3034 RMK AO1 P0046
Loading
Personal Weather Stations






























Interactive Weather Map New forecast layout! Learn more

10-Day Weather Forecast

Advertisements
Track Severe Weather on mobile